Worsley, Canada
Current Conditions -  °F | °C
As of 3:00 PM on Friday 24 Oct 2014 (Local Time) from CYPE Reporting Station
Rain Showers Rain Showers  
Wind Chill: 27°   Ceiling: 1600
Heat Index: 37°   Visibility: 15mi
Dew Point: 34°   Wind: 18mph
Humidity: 87%   Direction: 270°W
Pressure: 29.82"   Gusts: NA
Location:  56.52°N, 119.07°W
Report Text: CYPE 242100Z 27016KT 15SM -SHRA OVC016 03/01 A2982 RMK SC8 SLP126
Loading
Personal Weather Stations






























Interactive Weather Map
Tropical Storm Tracking
New forecast layout! Learn more

10-Day Weather Forecast

Advertisements
Track Severe Weather on mobile